Time;durP1;ratioP1;P1;durP2;ratioP2;P2;SDS_P1;SDS_P2;PMS_P1;PMS_P2;Temp;Humidity;BMP_temperature;BMP_pressure;BME280_temperature;BME280_humidity;BME280_pressure;Samples;Min_cycle;Max_cycle;Signal;HPM_P1;HPM_P2
2022/08/11 00:01:04;;;;;;;;;;;23.60;56.40;;;;;;5046991;27;83711;-37
2022/08/11 00:03:30;;;;;;;;;;;23.60;56.40;;;;;;5046888;28;83095;-37
2022/08/11 00:05:56;;;;;;;;;;;23.60;56.40;;;;;;5049770;28;82245;-37
2022/08/11 00:08:25;;;;;;;;;;;23.60;56.40;;;;;;5046544;28;84156;-37
2022/08/11 00:10:56;;;;;;;;;;;23.50;56.30;;;;;;5046889;28;81976;-37
2022/08/11 00:13:22;;;;;;;;;;;23.50;56.30;;;;;;5047424;28;81502;-38
2022/08/11 00:15:48;;;;;;;;;;;23.50;56.30;;;;;;5046087;28;83359;-37
2022/08/11 00:18:14;;;;;;;;;;;23.50;56.40;;;;;;5046690;28;81935;-37
2022/08/11 00:20:41;;;;;;;;;;;23.50;56.40;;;;;;5046017;28;83615;-37
2022/08/11 00:23:10;;;;;;;;;;;23.50;56.30;;;;;;5046717;28;82973;-37
2022/08/11 00:25:37;;;;;;;;;;;23.40;56.30;;;;;;5046254;27;82045;-37
2022/08/11 00:28:03;;;;;;;;;;;23.50;56.30;;;;;;5049389;27;82365;-37
2022/08/11 00:30:37;;;;;;;;;;;23.40;56.30;;;;;;5046525;28;81885;-38
2022/08/11 00:33:03;;;;;;;;;;;23.40;56.30;;;;;;5046786;27;82389;-37
2022/08/11 00:35:30;;;;;;;;;;;23.40;56.30;;;;;;5046074;28;82963;-37
2022/08/11 00:37:57;;;;;;;;;;;23.40;56.30;;;;;;5046820;28;81285;-37
2022/08/11 00:40:27;;;;;;;;;;;23.40;56.30;;;;;;5046661;27;81837;-37
2022/08/11 00:43:07;;;;;;;;;;;23.40;56.30;;;;;;5046125;28;82868;-37
2022/08/11 00:45:41;;;;;;;;;;;23.40;56.30;;;;;;5045780;28;83571;-37
2022/08/11 00:48:26;;;;;;;;;;;23.40;56.40;;;;;;5046837;27;83382;-37
2022/08/11 00:51:15;;;;;;;;;;;23.30;56.30;;;;;;5048932;28;84649;-37
2022/08/11 00:53:47;;;;;;;;;;;23.30;56.30;;;;;;5039921;28;82358;-37
2022/08/11 00:56:13;;;;;;;;;;;23.30;56.20;;;;;;5045800;28;82202;-37
2022/08/11 00:58:57;;;;;;;;;;;23.30;56.20;;;;;;5046278;28;81948;-38
2022/08/11 01:01:31;;;;;;;;;;;23.20;56.20;;;;;;5046682;27;82924;-37
2022/08/11 01:04:08;;;;;;;;;;;23.30;56.30;;;;;;5046703;28;82240;-38
2022/08/11 01:06:49;;;;;;;;;;;23.20;56.30;;;;;;5046145;28;81965;-37
2022/08/11 01:09:33;;;;;;;;;;;23.20;56.20;;;;;;5046361;27;82212;-37
2022/08/11 01:11:59;;;;;;;;;;;23.20;56.20;;;;;;5045045;27;85603;-37
2022/08/11 01:14:43;;;;;;;;;;;23.20;56.20;;;;;;5049118;28;82390;-37
2022/08/11 01:17:09;;;;;;;;;;;23.20;56.20;;;;;;5045012;28;83040;-37
2022/08/11 01:19:38;;;;;;;;;;;23.10;56.10;;;;;;5045727;28;82047;-37
2022/08/11 01:22:18;;;;;;;;;;;23.10;56.10;;;;;;5046085;28;82379;-37
2022/08/11 01:25:02;;;;;;;;;;;23.10;56.20;;;;;;5045846;28;81888;-37
2022/08/11 01:27:47;;;;;;;;;;;23.10;56.30;;;;;;5045902;27;82029;-37
2022/08/11 01:30:31;;;;;;;;;;;23.00;56.20;;;;;;5046223;27;83995;-37
2022/08/11 01:33:14;;;;;;;;;;;23.00;56.20;;;;;;5045756;27;82972;-38
2022/08/11 01:35:58;;;;;;;;;;;23.00;56.10;;;;;;5045791;28;82205;-37
2022/08/11 01:38:36;;;;;;;;;;;23.00;56.10;;;;;;5050353;27;82963;-37
2022/08/11 01:41:13;;;;;;;;;;;23.00;56.10;;;;;;5049213;28;82060;-37
2022/08/11 01:46:57;;;;;;;;;;;23.00;56.10;;;;;;5046368;28;82210;-37
2022/08/11 01:49:23;;;;;;;;;;;22.90;56.10;;;;;;5047061;28;82165;-37
2022/08/11 01:52:01;;;;;;;;;;;23.00;56.10;;;;;;5047795;28;84081;-37
2022/08/11 01:54:48;;;;;;;;;;;23.00;56.10;;;;;;5048880;28;84754;-37
2022/08/11 01:57:32;;;;;;;;;;;22.90;56.10;;;;;;5049749;28;81280;-37
2022/08/11 02:00:18;;;;;;;;;;;22.90;56.10;;;;;;5049208;27;81860;-37
2022/08/11 02:03:00;;;;;;;;;;;22.90;56.10;;;;;;5051116;28;83152;-37
2022/08/11 02:05:44;;;;;;;;;;;22.90;56.10;;;;;;5048426;27;82890;-37
2022/08/11 02:08:16;;;;;;;;;;;22.90;56.10;;;;;;5048709;27;84454;-37
2022/08/11 02:13:31;;;;;;;;;;;22.80;56.10;;;;;;5049002;28;81726;-37
2022/08/11 02:16:16;;;;;;;;;;;22.80;56.10;;;;;;5046615;28;86168;-37
2022/08/11 02:24:27;;;;;;;;;;;22.80;56.10;;;;;;5052207;28;81205;-37
2022/08/11 02:27:01;;;;;;;;;;;22.70;56.00;;;;;;5048604;27;83412;-37
2022/08/11 02:29:45;;;;;;;;;;;22.70;56.00;;;;;;5048750;28;82734;-37
2022/08/11 02:35:05;;;;;;;;;;;22.70;56.00;;;;;;5046377;27;82689;-37
2022/08/11 02:37:31;;;;;;;;;;;22.70;56.00;;;;;;5048386;28;83145;-37
2022/08/11 02:39:56;;;;;;;;;;;22.60;56.00;;;;;;5048618;28;82051;-37
2022/08/11 02:42:22;;;;;;;;;;;22.70;56.00;;;;;;5048764;28;82307;-37
2022/08/11 02:45:06;;;;;;;;;;;22.70;56.00;;;;;;5048423;28;82947;-37
2022/08/11 02:47:37;;;;;;;;;;;22.60;55.90;;;;;;5050979;27;82057;-37
2022/08/11 02:50:10;;;;;;;;;;;22.60;56.00;;;;;;5048387;28;83676;-37
2022/08/11 02:52:48;;;;;;;;;;;22.50;56.00;;;;;;5048535;28;81800;-37
2022/08/11 02:55:19;;;;;;;;;;;22.60;56.00;;;;;;5048288;28;82758;-37
2022/08/11 02:57:54;;;;;;;;;;;22.50;55.90;;;;;;5047060;28;85406;-37
2022/08/11 03:00:20;;;;;;;;;;;22.60;56.00;;;;;;5048139;28;81919;-37
2022/08/11 03:03:01;;;;;;;;;;;22.50;55.90;;;;;;5048282;27;82193;-37
2022/08/11 03:05:45;;;;;;;;;;;22.50;56.00;;;;;;5048026;28;82028;-37
2022/08/11 03:08:50;;;;;;;;;;;22.50;56.00;;;;;;5047980;27;82047;-38
2022/08/11 03:17:08;;;;;;;;;;;22.40;56.00;;;;;;5047790;28;81630;-37
2022/08/11 03:19:53;;;;;;;;;;;22.40;56.00;;;;;;5047982;28;82862;-37
2022/08/11 03:22:44;;;;;;;;;;;22.40;56.00;;;;;;5047977;27;81941;-37
2022/08/11 03:25:24;;;;;;;;;;;22.40;56.00;;;;;;5029977;27;83688;-37
2022/08/11 03:27:52;;;;;;;;;;;22.40;55.90;;;;;;5046405;28;82969;-37
2022/08/11 03:30:22;;;;;;;;;;;22.30;55.90;;;;;;5047564;27;82205;-37
2022/08/11 03:34:01;;;;;;;;;;;22.30;55.90;;;;;;5047402;27;82416;-37
2022/08/11 03:35:38;;;;;;;;;;;22.30;55.90;;;;;;5049263;28;83512;-37
2022/08/11 03:38:07;;;;;;;;;;;22.30;55.90;;;;;;5047471;27;82537;-37
2022/08/11 03:43:52;;;;;;;;;;;22.30;55.90;;;;;;5047647;28;81336;-37
2022/08/11 03:46:28;;;;;;;;;;;22.30;55.90;;;;;;5047503;28;81844;-37
2022/08/11 03:49:14;;;;;;;;;;;22.20;55.90;;;;;;5047585;28;82924;-37
2022/08/11 03:52:12;;;;;;;;;;;22.20;56.20;;;;;;5046597;27;82776;-37
2022/08/11 03:54:49;;;;;;;;;;;22.20;56.20;;;;;;5023700;27;83679;-37
2022/08/11 03:57:35;;;;;;;;;;;22.10;55.90;;;;;;5047234;28;82942;-37
2022/08/11 04:00:08;;;;;;;;;;;22.20;56.00;;;;;;5048964;27;81924;-37
2022/08/11 04:02:36;;;;;;;;;;;22.10;55.90;;;;;;5046713;28;84271;-37
2022/08/11 04:05:06;;;;;;;;;;;22.10;55.90;;;;;;5047048;28;82146;-37
2022/08/11 04:07:51;;;;;;;;;;;22.10;55.90;;;;;;5047077;27;82218;-37
2022/08/11 04:10:22;;;;;;;;;;;22.10;55.90;;;;;;5047657;27;81340;-37
2022/08/11 04:13:06;;;;;;;;;;;22.10;56.10;;;;;;5046843;28;82066;-37
2022/08/11 04:15:59;;;;;;;;;;;22.00;56.00;;;;;;5046646;27;82397;-37
2022/08/11 04:18:42;;;;;;;;;;;22.00;56.00;;;;;;5045921;28;85473;-37
2022/08/11 04:21:27;;;;;;;;;;;22.00;56.00;;;;;;5046768;28;82072;-37
2022/08/11 04:24:04;;;;;;;;;;;22.00;56.00;;;;;;5049498;27;82508;-37
2022/08/11 04:26:32;;;;;;;;;;;22.00;56.10;;;;;;5047054;28;81793;-37
2022/08/11 04:29:16;;;;;;;;;;;22.00;56.10;;;;;;5046607;27;82732;-37
2022/08/11 04:31:48;;;;;;;;;;;21.90;56.10;;;;;;5046564;27;83062;-37
2022/08/11 04:34:16;;;;;;;;;;;22.00;56.10;;;;;;5046786;28;81982;-37
2022/08/11 04:40:01;;;;;;;;;;;21.90;56.10;;;;;;5043998;28;82424;-37
2022/08/11 04:45:37;;;;;;;;;;;21.90;56.10;;;;;;5046375;27;82894;-37
2022/08/11 05:02:44;;;;;;;;;;;21.90;56.10;;;;;;5045429;28;82124;-37
2022/08/11 05:05:32;;;;;;;;;;;21.90;55.90;;;;;;5046454;28;81181;-37
2022/08/11 05:08:12;;;;;;;;;;;21.80;56.00;;;;;;5046172;27;82209;-38
2022/08/11 05:10:53;;;;;;;;;;;21.80;56.00;;;;;;5048774;28;82321;-37
2022/08/11 05:35:42;;;;;;;;;;;21.80;56.10;;;;;;5048683;28;81980;-37
2022/08/11 05:57:30;;;;;;;;;;;21.80;56.30;;;;;;5045335;28;82026;-37
2022/08/11 05:59:59;;;;;;;;;;;21.80;56.40;;;;;;5048593;28;82354;-37
2022/08/11 06:02:25;;;;;;;;;;;21.80;56.40;;;;;;5045669;28;82377;-37
2022/08/11 06:04:58;;;;;;;;;;;21.80;56.40;;;;;;5044044;28;85652;-37
2022/08/11 06:07:30;;;;;;;;;;;21.70;56.60;;;;;;5044752;28;83910;-37
2022/08/11 06:09:57;;;;;;;;;;;21.80;56.60;;;;;;5045218;28;81956;-37
2022/08/11 06:12:25;;;;;;;;;;;21.80;56.60;;;;;;5045120;28;83924;-37
2022/08/11 06:14:53;;;;;;;;;;;21.70;56.60;;;;;;5044806;28;82742;-37
2022/08/11 06:17:31;;;;;;;;;;;21.70;56.60;;;;;;5045233;28;82023;-37
2022/08/11 06:20:11;;;;;;;;;;;21.70;56.80;;;;;;5045130;27;83929;-37
2022/08/11 06:22:37;;;;;;;;;;;21.70;56.90;;;;;;5047609;27;84891;-36
2022/08/11 06:25:04;;;;;;;;;;;21.70;56.80;;;;;;5049312;28;82489;-37
2022/08/11 06:27:31;;;;;;;;;;;21.70;56.80;;;;;;5048601;28;83623;-37
2022/08/11 06:29:57;;;;;;;;;;;21.70;56.80;;;;;;5048557;28;81891;-37
2022/08/11 06:32:30;;;;;;;;;;;21.70;56.80;;;;;;5048185;27;82922;-37
2022/08/11 06:35:09;;;;;;;;;;;21.70;56.80;;;;;;5048122;28;83583;-37
2022/08/11 06:37:54;;;;;;;;;;;21.70;57.10;;;;;;5048269;28;81957;-37
2022/08/11 06:40:20;;;;;;;;;;;21.70;57.00;;;;;;5048052;28;82402;-37
2022/08/11 06:43:02;;;;;;;;;;;21.70;56.90;;;;;;5048317;28;82112;-37
2022/08/11 06:45:31;;;;;;;;;;;21.70;56.90;;;;;;5050612;28;81946;-37
2022/08/11 06:47:59;;;;;;;;;;;21.70;57.00;;;;;;5047974;28;82982;-37
2022/08/11 06:53:11;;;;;;;;;;;21.70;57.00;;;;;;5048915;28;83024;-37
2022/08/11 07:01:19;;;;;;;;;;;21.70;57.10;;;;;;5048370;28;82068;-37
2022/08/11 07:03:47;;;;;;;;;;;21.70;57.00;;;;;;5047655;28;84144;-37
2022/08/11 07:06:21;;;;;;;;;;;21.70;57.10;;;;;;5050884;28;82044;-37
2022/08/11 07:17:01;;;;;;;;;;;21.70;57.10;;;;;;5048140;28;81145;-37
2022/08/11 07:30:35;;;;;;;;;;;21.80;57.30;;;;;;5049163;28;81869;-37
2022/08/11 07:33:01;;;;;;;;;;;21.80;57.50;;;;;;5047755;28;82003;-37
2022/08/11 07:35:31;;;;;;;;;;;21.80;57.50;;;;;;5047803;27;82388;-37
2022/08/11 07:38:00;;;;;;;;;;;21.80;57.60;;;;;;5047063;28;84843;-37
2022/08/11 07:40:26;;;;;;;;;;;21.80;57.40;;;;;;5047414;28;82106;-37
2022/08/11 07:42:52;;;;;;;;;;;21.70;57.40;;;;;;5048213;27;81921;-37
2022/08/11 07:53:33;;;;;;;;;;;21.80;57.50;;;;;;5048683;28;81862;-37
2022/08/11 07:56:00;;;;;;;;;;;21.80;57.70;;;;;;5047389;27;82375;-37
2022/08/11 08:17:56;;;;;;;;;;;21.80;57.70;;;;;;5048985;28;82911;-37
2022/08/11 08:20:24;;;;;;;;;;;21.80;57.50;;;;;;5046705;28;84373;-37
2022/08/11 08:22:55;;;;;;;;;;;21.80;57.90;;;;;;5046904;28;82403;-37
2022/08/11 08:25:25;;;;;;;;;;;21.80;58.00;;;;;;5046834;27;83914;-37
2022/08/11 08:27:51;;;;;;;;;;;21.80;57.60;;;;;;5046508;28;82394;-37
2022/08/11 08:33:02;;;;;;;;;;;21.90;57.70;;;;;;5046921;28;81932;-37
2022/08/11 08:35:29;;;;;;;;;;;21.90;57.70;;;;;;5046967;28;81335;-37
2022/08/11 08:37:55;;;;;;;;;;;21.80;57.90;;;;;;5046473;28;82075;-37
2022/08/11 08:40:21;;;;;;;;;;;21.80;57.70;;;;;;5049092;28;82908;-37
2022/08/11 08:42:50;;;;;;;;;;;21.80;57.70;;;;;;5046147;28;83042;-37
2022/08/11 08:45:17;;;;;;;;;;;21.90;57.60;;;;;;5046435;27;83275;-37
2022/08/11 08:48:00;;;;;;;;;;;21.80;57.70;;;;;;5045679;28;84268;-37
2022/08/11 08:51:32;;;;;;;;;;;21.90;57.70;;;;;;5046093;28;82038;-37
2022/08/11 08:53:13;;;;;;;;;;;21.80;57.90;;;;;;5045593;28;82581;-37
2022/08/11 08:55:40;;;;;;;;;;;21.90;57.80;;;;;;5046206;28;82884;-37
2022/08/11 08:58:06;;;;;;;;;;;21.90;57.90;;;;;;5045846;28;82192;-37
2022/08/11 09:00:43;;;;;;;;;;;21.90;57.70;;;;;;5049375;28;82442;-37
2022/08/11 09:03:09;;;;;;;;;;;21.90;57.70;;;;;;5046345;28;81946;-37
2022/08/11 09:05:34;;;;;;;;;;;22.00;57.80;;;;;;5046223;28;82133;-37
2022/08/11 09:08:00;;;;;;;;;;;22.00;57.60;;;;;;5045563;28;84152;-37
2022/08/11 09:10:29;;;;;;;;;;;22.00;57.60;;;;;;5046370;28;81987;-37
2022/08/11 09:12:56;;;;;;;;;;;22.00;57.60;;;;;;5046093;27;84144;-37
2022/08/11 09:15:22;;;;;;;;;;;22.00;57.60;;;;;;5045301;28;84414;-37
2022/08/11 09:17:50;;;;;;;;;;;22.00;57.60;;;;;;5044264;28;82041;-37
2022/08/11 09:20:19;;;;;;;;;;;22.00;57.50;;;;;;5045684;27;83879;-37
2022/08/11 09:28:15;;;;;;;;;;;22.10;57.70;;;;;;5046040;28;83046;-37
2022/08/11 09:30:45;;;;;;;;;;;22.10;57.60;;;;;;5045792;28;82124;-37
2022/08/11 09:33:13;;;;;;;;;;;22.10;57.80;;;;;;5045211;27;82877;-37
2022/08/11 09:35:42;;;;;;;;;;;22.10;57.60;;;;;;5045601;28;82614;-37
2022/08/11 09:40:53;;;;;;;;;;;22.10;57.60;;;;;;5045998;28;81868;-37
2022/08/11 09:46:03;;;;;;;;;;;22.20;57.20;;;;;;5048715;28;81807;-37
2022/08/11 09:48:30;;;;;;;;;;;22.20;57.40;;;;;;5045661;28;82408;-37
2022/08/11 09:50:58;;;;;;;;;;;22.20;57.40;;;;;;5046334;28;81267;-37
2022/08/11 09:53:25;;;;;;;;;;;22.20;57.10;;;;;;5045763;27;81881;-37
2022/08/11 09:55:51;;;;;;;;;;;22.20;57.30;;;;;;5045460;28;82973;-37
2022/08/11 09:58:18;;;;;;;;;;;22.20;57.60;;;;;;5045702;27;83121;-37
2022/08/11 10:00:45;;;;;;;;;;;22.20;57.30;;;;;;5049389;27;83144;-37
2022/08/11 10:03:12;;;;;;;;;;;22.30;57.30;;;;;;5048783;28;82751;-37
2022/08/11 10:08:40;;;;;;;;;;;22.30;57.10;;;;;;5048871;28;81925;-37
2022/08/11 10:11:08;;;;;;;;;;;22.30;57.10;;;;;;5048383;27;82023;-37
2022/08/11 10:15:32;;;;;;;;;;;22.30;57.20;;;;;;5048886;27;82463;-37
2022/08/11 10:16:26;;;;;;;;;;;22.30;57.10;;;;;;5048671;28;82560;-37
2022/08/11 10:18:53;;;;;;;;;;;22.40;57.10;;;;;;5048649;28;82050;-37
2022/08/11 10:21:27;;;;;;;;;;;22.30;57.20;;;;;;5049097;28;81847;-37
2022/08/11 10:34:54;;;;;;;;;;;22.40;57.30;;;;;;5048816;28;82946;-37
2022/08/11 10:37:21;;;;;;;;;;;22.40;57.20;;;;;;5048289;28;84136;-37
2022/08/11 10:39:47;;;;;;;;;;;22.40;57.20;;;;;;5048168;28;82043;-37
2022/08/11 10:45:00;;;;;;;;;;;22.40;57.20;;;;;;5047085;28;82073;-37
2022/08/11 10:47:34;;;;;;;;;;;22.50;57.30;;;;;;5048370;28;82129;-37
2022/08/11 11:01:05;;;;;;;;;;;22.50;57.20;;;;;;5048405;28;82241;-37
2022/08/11 11:03:35;;;;;;;;;;;22.50;57.20;;;;;;5047992;27;83596;-38
2022/08/11 11:06:24;;;;;;;;;;;22.50;57.20;;;;;;5048003;28;82991;-37
2022/08/11 11:08:51;;;;;;;;;;;22.50;57.20;;;;;;5026773;27;81233;-38
2022/08/11 11:11:17;;;;;;;;;;;22.50;57.30;;;;;;5048122;28;82073;-38
2022/08/11 11:19:18;;;;;;;;;;;22.60;57.30;;;;;;5047374;28;82249;-37
2022/08/11 11:21:44;;;;;;;;;;;22.60;57.30;;;;;;5047752;28;82061;-37
2022/08/11 11:24:12;;;;;;;;;;;22.60;57.10;;;;;;5047789;27;82419;-37
2022/08/11 11:26:44;;;;;;;;;;;22.70;57.10;;;;;;5047872;28;82898;-37
2022/08/11 11:29:10;;;;;;;;;;;22.70;57.10;;;;;;5047619;28;82057;-37
2022/08/11 11:31:50;;;;;;;;;;;22.60;57.10;;;;;;5047556;28;84211;-37
2022/08/11 11:34:22;;;;;;;;;;;22.60;57.10;;;;;;5047176;28;82257;-37
2022/08/11 11:36:49;;;;;;;;;;;22.70;56.60;;;;;;5047583;28;81853;-38
2022/08/11 11:39:19;;;;;;;;;;;22.70;56.40;;;;;;5050066;27;83046;-41
2022/08/11 11:41:45;;;;;;;;;;;22.80;56.30;;;;;;5046857;28;82917;-39
2022/08/11 11:44:12;;;;;;;;;;;22.90;53.20;;;;;;5047511;27;83201;-40
2022/08/11 11:46:38;;;;;;;;;;;22.90;52.40;;;;;;5047237;28;83152;-38
2022/08/11 11:49:07;;;;;;;;;;;22.90;53.30;;;;;;5047569;28;82076;-40
2022/08/11 11:51:35;;;;;;;;;;;23.00;53.90;;;;;;5047133;27;83702;-38
2022/08/11 11:54:02;;;;;;;;;;;23.10;53.90;;;;;;5047138;28;82945;-37
2022/08/11 11:56:28;;;;;;;;;;;23.10;53.90;;;;;;5047060;28;82059;-38
2022/08/11 12:01:38;;;;;;;;;;;23.20;53.90;;;;;;5050005;28;82221;-38
2022/08/11 12:04:05;;;;;;;;;;;23.30;53.10;;;;;;5047329;28;82309;-38
2022/08/11 12:06:31;;;;;;;;;;;23.30;52.90;;;;;;5046171;28;85317;-38
2022/08/11 12:08:57;;;;;;;;;;;23.30;50.80;;;;;;5047324;28;82058;-39
2022/08/11 12:14:09;;;;;;;;;;;23.30;52.00;;;;;;5046790;28;82232;-39
2022/08/11 12:16:35;;;;;;;;;;;23.40;50.20;;;;;;5046619;28;85588;-38
2022/08/11 12:19:03;;;;;;;;;;;23.40;50.90;;;;;;5046862;28;82041;-42
2022/08/11 12:21:29;;;;;;;;;;;23.40;50.20;;;;;;5045901;28;83338;-45
2022/08/11 12:29:13;;;;;;;;;;;23.60;50.70;;;;;;5045174;28;81763;-43
2022/08/11 12:31:39;;;;;;;;;;;23.60;51.00;;;;;;5046290;28;82799;-43
2022/08/11 12:34:06;;;;;;;;;;;23.70;51.40;;;;;;5046447;28;81981;-42
2022/08/11 12:36:34;;;;;;;;;;;23.70;51.20;;;;;;5046350;28;82002;-42
2022/08/11 12:39:01;;;;;;;;;;;23.70;51.90;;;;;;5046543;28;82421;-40
2022/08/11 12:46:58;;;;;;;;;;;23.70;49.20;;;;;;5046160;28;81907;-40
2022/08/11 12:52:12;;;;;;;;;;;23.90;50.10;;;;;;5046555;28;82057;-40
2022/08/11 12:54:37;;;;;;;;;;;23.90;49.60;;;;;;5046072;28;83056;-42
2022/08/11 13:05:23;;;;;;;;;;;24.00;49.50;;;;;;5046628;28;82444;-42
2022/08/11 13:07:48;;;;;;;;;;;24.00;48.90;;;;;;5046515;27;82524;-41
2022/08/11 13:12:46;;;;;;;;;;;24.00;49.80;;;;;;5048551;28;82504;-40
2022/08/11 13:13:02;;;;;;;;;;;24.00;49.10;;;;;;5046024;28;82641;-40
2022/08/11 13:15:28;;;;;;;;;;;24.10;50.00;;;;;;5045961;28;82919;-40
2022/08/11 13:17:54;;;;;;;;;;;24.10;50.40;;;;;;5046213;28;82524;-40
2022/08/11 13:20:23;;;;;;;;;;;24.20;50.20;;;;;;5046047;28;82498;-41
2022/08/11 13:22:51;;;;;;;;;;;24.20;49.20;;;;;;5045016;28;83863;-42
2022/08/11 13:25:17;;;;;;;;;;;24.20;49.90;;;;;;5046021;28;82050;-40
2022/08/11 13:27:44;;;;;;;;;;;24.30;49.50;;;;;;5046079;27;82353;-43
2022/08/11 13:33:16;;;;;;;;;;;24.30;49.40;;;;;;5045393;27;82069;-41
2022/08/11 13:35:42;;;;;;;;;;;24.20;51.10;;;;;;5047211;28;83183;-41
2022/08/11 13:38:12;;;;;;;;;;;24.20;52.80;;;;;;5047502;28;82021;-40
2022/08/11 13:40:38;;;;;;;;;;;24.30;53.20;;;;;;5049715;27;83916;-39
2022/08/11 13:43:05;;;;;;;;;;;24.30;54.30;;;;;;5049345;28;83384;-40
2022/08/11 13:45:32;;;;;;;;;;;24.20;54.10;;;;;;5049167;28;82046;-39
2022/08/11 13:47:58;;;;;;;;;;;24.30;53.50;;;;;;5048890;27;82599;-40
2022/08/11 13:51:29;;;;;;;;;;;24.20;54.10;;;;;;5049256;28;82295;-40
2022/08/11 13:53:11;;;;;;;;;;;24.30;54.00;;;;;;5051649;28;81918;-40
2022/08/11 13:55:39;;;;;;;;;;;24.20;54.10;;;;;;5049072;28;83842;-40
2022/08/11 13:58:05;;;;;;;;;;;24.20;54.20;;;;;;5049128;28;82082;-41
2022/08/11 14:00:30;;;;;;;;;;;24.20;54.30;;;;;;5049309;27;81923;-40
2022/08/11 14:02:56;;;;;;;;;;;24.20;54.00;;;;;;5048679;28;84533;-41
2022/08/11 14:05:27;;;;;;;;;;;24.30;53.80;;;;;;5049562;28;81260;-41
2022/08/11 14:07:56;;;;;;;;;;;24.30;54.30;;;;;;5049132;27;83178;-41
2022/08/11 14:10:27;;;;;;;;;;;24.20;53.90;;;;;;5048870;28;83233;-42
2022/08/11 14:15:41;;;;;;;;;;;24.30;53.70;;;;;;5051163;28;82716;-42
2022/08/11 14:18:07;;;;;;;;;;;24.30;53.80;;;;;;5048647;28;82042;-42
2022/08/11 14:23:31;;;;;;;;;;;24.40;53.50;;;;;;5048480;28;82108;-40
2022/08/11 14:28:41;;;;;;;;;;;24.50;53.70;;;;;;5048478;28;81903;-40
2022/08/11 14:31:07;;;;;;;;;;;24.50;53.50;;;;;;5048976;28;82741;-43
2022/08/11 14:33:33;;;;;;;;;;;24.60;53.50;;;;;;5048058;28;82142;-40
2022/08/11 14:36:01;;;;;;;;;;;24.60;53.60;;;;;;5048478;27;81983;-40
2022/08/11 14:38:26;;;;;;;;;;;24.50;53.00;;;;;;5050183;28;84054;-40
2022/08/11 14:49:05;;;;;;;;;;;24.60;53.20;;;;;;5046301;28;81957;-40
2022/08/11 14:51:32;;;;;;;;;;;24.60;53.20;;;;;;5047884;28;82905;-40
2022/08/11 14:56:35;;;;;;;;;;;24.60;53.10;;;;;;5046245;28;82481;-41
2022/08/11 14:56:43;;;;;;;;;;;24.70;53.20;;;;;;5045932;28;83039;-40
2022/08/11 14:59:10;;;;;;;;;;;24.60;53.10;;;;;;5045785;28;82894;-40
2022/08/11 15:04:21;;;;;;;;;;;24.60;53.70;;;;;;5046294;28;82864;-40
2022/08/11 15:06:47;;;;;;;;;;;24.60;53.10;;;;;;5047532;28;82022;-40
2022/08/11 15:09:13;;;;;;;;;;;24.60;53.10;;;;;;5047562;28;83016;-40
2022/08/11 15:17:09;;;;;;;;;;;24.60;53.00;;;;;;5047648;28;82054;-40
2022/08/11 15:19:35;;;;;;;;;;;24.70;53.10;;;;;;5046854;28;82883;-39
2022/08/11 15:24:44;;;;;;;;;;;24.70;53.50;;;;;;5064472;27;81904;-40
2022/08/11 15:38:14;;;;;;;;;;;24.80;51.40;;;;;;5047698;28;81911;-40
2022/08/11 15:46:17;;;;;;;;;;;24.80;51.10;;;;;;5046950;28;81925;-40
2022/08/11 15:48:47;;;;;;;;;;;24.80;50.30;;;;;;5047829;28;81354;-40
2022/08/11 15:51:21;;;;;;;;;;;24.80;50.90;;;;;;5047043;27;83091;-41
2022/08/11 15:53:52;;;;;;;;;;;24.80;51.20;;;;;;5046701;28;84648;-42
2022/08/11 15:56:19;;;;;;;;;;;24.80;51.50;;;;;;5045362;28;82883;-39
2022/08/11 16:04:20;;;;;;;;;;;24.90;51.40;;;;;;5067569;27;81972;-40
2022/08/11 16:06:48;;;;;;;;;;;24.90;51.80;;;;;;5067371;27;84055;-45
2022/08/11 16:09:16;;;;;;;;;;;24.80;51.50;;;;;;5070055;27;82573;-45
2022/08/11 16:11:43;;;;;;;;;;;24.80;51.80;;;;;;5067266;27;83864;-42
2022/08/11 16:16:58;;;;;;;;;;;24.80;52.10;;;;;;5033681;28;82141;-41
2022/08/11 16:19:27;;;;;;;;;;;24.70;52.40;;;;;;5026552;28;82491;-42
2022/08/11 16:21:54;;;;;;;;;;;24.70;52.40;;;;;;5025647;28;85795;-51
2022/08/11 16:24:20;;;;;;;;;;;24.80;52.30;;;;;;5026484;28;82272;-44
2022/08/11 16:26:46;;;;;;;;;;;24.80;52.00;;;;;;5026424;28;82522;-39
2022/08/11 16:29:12;;;;;;;;;;;24.80;51.70;;;;;;5026263;28;82921;-40
2022/08/11 16:31:39;;;;;;;;;;;24.80;51.80;;;;;;5029328;28;82110;-39
2022/08/11 16:38:33;;;;;;;;;;;24.80;51.60;;;;;;5026104;28;83339;-40
2022/08/11 16:39:36;;;;;;;;;;;24.70;51.00;;;;;;5024377;28;81675;-45
2022/08/11 16:47:30;;;;;;;;;;;24.80;51.20;;;;;;5025570;28;82849;-42
2022/08/11 16:49:56;;;;;;;;;;;24.80;50.80;;;;;;5026157;28;83017;-43
2022/08/11 16:52:22;;;;;;;;;;;24.80;50.80;;;;;;5026161;28;82199;-42
2022/08/11 16:54:48;;;;;;;;;;;24.70;50.90;;;;;;5028621;28;83895;-39
2022/08/11 17:00:11;;;;;;;;;;;24.70;51.10;;;;;;5026020;28;82086;-38
2022/08/11 17:13:58;;;;;;;;;;;24.70;52.00;;;;;;5025030;28;82900;-38
2022/08/11 17:16:26;;;;;;;;;;;24.60;52.00;;;;;;5052560;27;83294;-38
2022/08/11 17:18:56;;;;;;;;;;;24.60;52.00;;;;;;5067967;27;83277;-38
2022/08/11 17:21:25;;;;;;;;;;;24.70;52.10;;;;;;5066194;27;82313;-38
2022/08/11 17:23:53;;;;;;;;;;;24.60;52.10;;;;;;5065843;27;83619;-38
2022/08/11 17:26:24;;;;;;;;;;;24.60;52.20;;;;;;5066150;27;81960;-38
2022/08/11 17:28:55;;;;;;;;;;;24.60;52.30;;;;;;5066028;27;83964;-38
2022/08/11 17:36:52;;;;;;;;;;;24.60;52.50;;;;;;5064505;27;83083;-38
2022/08/11 17:39:18;;;;;;;;;;;24.50;52.40;;;;;;5064817;27;83145;-38
2022/08/11 17:49:58;;;;;;;;;;;24.50;52.50;;;;;;5065915;27;82020;-38
2022/08/11 18:00:37;;;;;;;;;;;24.50;52.50;;;;;;5065045;27;82209;-38
2022/08/11 18:05:48;;;;;;;;;;;24.40;52.60;;;;;;5064957;27;83173;-38
